Terminal Aerodrome Forecast
Issued by NWS Cleveland, OH

Home | Current Version | Previous Version | Graphics & Text | Print | Product List | Glossary On
Versions: 1 2 3 4 5 6 7 8 9 10 11 12 13 14 15 16 17 18 19 20
000
FTUS41 KCLE 290500
TAFERI
TAF
KERI 290531Z 2906/3006 30006KT P6SM SCT025
     FM291000 30005KT P6SM BKN028
     FM291700 32005KT P6SM -SHSN BKN030
     FM300200 01005KT P6SM SCT035=

USA.gov is the U.S. government's official web portal to all federal, state and local government web resources and services.